createdAt,value
2023-09-17T00:00:37.476Z,17.80
2023-09-17T00:05:39.243Z,17.80
2023-09-17T00:10:44.392Z,17.80
2023-09-17T00:15:47.151Z,17.70
2023-09-17T00:20:48.988Z,17.80
2023-09-17T00:25:50.806Z,17.80
2023-09-17T00:30:52.992Z,17.90
2023-09-17T00:35:54.943Z,17.90
2023-09-17T00:40:56.828Z,17.90
2023-09-17T00:45:58.769Z,17.90
2023-09-17T00:51:00.668Z,17.80
2023-09-17T00:56:03.306Z,18.00
2023-09-17T01:01:05.718Z,18.00
2023-09-17T01:06:10.862Z,18.10
2023-09-17T01:11:12.842Z,18.10
2023-09-17T01:16:14.920Z,18.20
2023-09-17T01:21:42.459Z,18.30
2023-09-17T01:26:54.075Z,18.30
2023-09-17T01:31:56.700Z,18.30
2023-09-17T01:37:01.904Z,18.30
2023-09-17T01:42:05.372Z,18.30
2023-09-17T01:47:08.520Z,18.40
2023-09-17T01:52:11.811Z,18.40
2023-09-17T01:57:13.914Z,18.30
2023-09-17T02:02:15.993Z,18.40
2023-09-17T02:07:18.922Z,18.40
2023-09-17T02:12:20.692Z,18.50
2023-09-17T02:17:23.136Z,18.40
2023-09-17T02:22:24.954Z,18.40
2023-09-17T02:27:26.906Z,18.40
2023-09-17T02:32:28.702Z,18.40
2023-09-17T02:37:30.610Z,18.40
2023-09-17T02:42:32.417Z,18.40
2023-09-17T02:47:34.877Z,18.40
2023-09-17T02:52:37.346Z,18.50
2023-09-17T02:57:39.230Z,18.40
2023-09-17T03:02:42.030Z,18.30
2023-09-17T03:07:44.626Z,18.30
2023-09-17T03:12:47.522Z,18.40
2023-09-17T03:17:49.491Z,18.50
2023-09-17T03:22:51.440Z,18.50
2023-09-17T03:27:54.087Z,18.40
2023-09-17T03:33:04.359Z,18.50
2023-09-17T03:38:13.501Z,18.50
2023-09-17T03:43:15.805Z,18.70
2023-09-17T03:48:18.939Z,18.80
2023-09-17T03:53:20.940Z,18.80
2023-09-17T03:58:24.705Z,18.80
2023-09-17T04:03:26.693Z,18.80
2023-09-17T04:08:29.173Z,18.80
2023-09-17T04:13:31.528Z,18.80
2023-09-17T04:18:33.629Z,18.80
2023-09-17T04:23:35.580Z,18.70
2023-09-17T04:28:38.074Z,18.60
2023-09-17T04:33:40.118Z,18.50
2023-09-17T04:38:42.195Z,18.30
2023-09-17T04:43:44.219Z,18.30
2023-09-17T04:48:47.405Z,18.30
2023-09-17T04:53:49.466Z,18.30
2023-09-17T04:58:51.760Z,18.30
2023-09-17T05:03:54.832Z,18.20
2023-09-17T05:08:57.395Z,18.20
2023-09-17T05:13:59.641Z,18.20
2023-09-17T05:19:02.706Z,18.60
2023-09-17T05:24:05.693Z,19.00
2023-09-17T05:29:09.966Z,19.20
2023-09-17T05:34:12.196Z,19.40
2023-09-17T05:39:14.380Z,19.60
2023-09-17T05:44:16.344Z,19.60
2023-09-17T05:49:18.697Z,19.70
2023-09-17T05:54:22.525Z,19.80
2023-09-17T05:59:24.671Z,19.90
2023-09-17T06:04:27.783Z,19.70
2023-09-17T06:09:32.448Z,19.80
2023-09-17T06:14:34.293Z,20.20
2023-09-17T06:19:38.822Z,20.60
2023-09-17T06:24:40.684Z,25.90
2023-09-17T06:29:42.511Z,24.90
2023-09-17T06:34:44.657Z,22.90
2023-09-17T06:39:48.024Z,21.90
2023-09-17T06:44:50.266Z,22.80
2023-09-17T06:49:52.065Z,26.40
2023-09-17T06:54:54.139Z,31.20
2023-09-17T06:59:55.928Z,32.20
2023-09-17T07:04:57.806Z,29.20
2023-09-17T07:09:59.690Z,31.90
2023-09-17T07:15:01.491Z,32.80
2023-09-17T07:20:05.797Z,31.70
2023-09-17T07:25:08.264Z,31.00
2023-09-17T07:30:10.210Z,31.40
2023-09-17T07:35:12.222Z,31.20
2023-09-17T07:40:14.357Z,34.10
2023-09-17T07:45:16.257Z,31.70
2023-09-17T07:50:18.126Z,34.50
2023-09-17T07:55:20.129Z,35.90
2023-09-17T08:00:22.594Z,34.10
2023-09-17T08:05:26.231Z,35.70
2023-09-17T08:10:29.202Z,35.00
2023-09-17T08:15:31.248Z,36.50
2023-09-17T08:20:33.846Z,36.90
2023-09-17T08:25:35.736Z,34.90
2023-09-17T08:30:37.598Z,34.40
2023-09-17T08:35:39.981Z,34.70
2023-09-17T08:40:41.955Z,33.50
2023-09-17T08:45:43.779Z,34.00
2023-09-17T08:50:52.103Z,34.90
2023-09-17T08:55:58.124Z,35.60
2023-09-17T09:01:04.779Z,35.40
2023-09-17T09:06:08.133Z,33.70
2023-09-17T09:11:10.432Z,33.90
2023-09-17T09:16:13.372Z,35.80
2023-09-17T09:21:15.606Z,35.90
2023-09-17T09:26:17.568Z,33.40
2023-09-17T09:31:20.256Z,34.60
2023-09-17T09:36:22.232Z,35.60
2023-09-17T09:41:27.451Z,34.70
2023-09-17T09:46:33.812Z,34.30
2023-09-17T09:51:37.193Z,35.10
2023-09-17T09:56:39.168Z,35.50
2023-09-17T10:01:42.622Z,34.70
2023-09-17T10:06:46.311Z,34.40
2023-09-17T10:11:49.561Z,32.70
2023-09-17T10:16:51.450Z,34.60
2023-09-17T10:21:55.416Z,35.20
2023-09-17T10:27:00.456Z,34.00
2023-09-17T10:32:04.362Z,33.50
2023-09-17T10:37:07.445Z,34.30
2023-09-17T10:42:10.248Z,34.20
2023-09-17T10:47:15.420Z,33.70
2023-09-17T10:52:18.004Z,34.30
2023-09-17T10:57:38.341Z,32.80
2023-09-17T11:02:42.925Z,33.30
2023-09-17T11:07:45.248Z,33.10
2023-09-17T11:12:48.290Z,33.10
2023-09-17T11:17:58.139Z,33.60
2023-09-17T11:23:02.260Z,33.60
2023-09-17T11:28:14.665Z,33.40
2023-09-17T11:33:16.531Z,33.90
2023-09-17T11:38:24.435Z,33.70
2023-09-17T11:43:26.956Z,33.50
2023-09-17T11:48:28.717Z,32.80
2023-09-17T11:53:30.565Z,33.80
2023-09-17T11:58:34.809Z,33.30
2023-09-17T12:03:37.833Z,32.80
2023-09-17T12:08:39.607Z,32.40
2023-09-17T12:13:41.431Z,32.40
2023-09-17T12:18:43.320Z,31.00
2023-09-17T12:24:03.785Z,31.70
2023-09-17T12:29:10.419Z,32.00
2023-09-17T12:34:12.389Z,32.70
2023-09-17T12:39:14.229Z,31.80
2023-09-17T12:44:16.111Z,32.80
2023-09-17T12:49:18.590Z,33.40
2023-09-17T12:54:22.911Z,32.50
2023-09-17T12:59:29.183Z,32.20
2023-09-17T13:04:38.517Z,32.20
2023-09-17T13:09:40.341Z,31.80
2023-09-17T13:14:42.199Z,31.30
2023-09-17T13:19:44.443Z,30.60
2023-09-17T13:24:46.945Z,30.40
2023-09-17T13:29:50.829Z,30.80
2023-09-17T13:34:53.337Z,31.50
2023-09-17T13:39:55.425Z,31.70
2023-09-17T13:44:58.021Z,31.90
2023-09-17T13:50:00.233Z,31.50
2023-09-17T13:55:02.205Z,30.80
2023-09-17T14:00:04.552Z,30.40
2023-09-17T14:05:14.548Z,30.10
2023-09-17T14:10:19.361Z,30.40
2023-09-17T14:15:24.823Z,31.30
2023-09-17T14:20:26.733Z,31.50
2023-09-17T14:25:28.607Z,31.70
2023-09-17T14:30:30.399Z,31.80
2023-09-17T14:35:32.188Z,32.30
2023-09-17T14:40:34.891Z,32.60
2023-09-17T14:45:37.688Z,32.40
2023-09-17T14:50:39.456Z,32.30
2023-09-17T14:55:41.898Z,32.10
2023-09-17T15:00:44.173Z,31.90
2023-09-17T15:05:46.038Z,31.90
2023-09-17T15:10:47.863Z,31.80
2023-09-17T15:15:50.105Z,31.40
2023-09-17T15:20:51.897Z,30.70
2023-09-17T15:25:53.867Z,30.10
2023-09-17T15:30:55.955Z,30.00
2023-09-17T15:35:58.802Z,30.10
2023-09-17T15:41:04.682Z,30.10
2023-09-17T15:46:06.617Z,29.90
2023-09-17T15:51:08.473Z,29.40
2023-09-17T15:56:10.385Z,29.30
2023-09-17T16:01:12.332Z,29.30
2023-09-17T16:06:15.640Z,29.00
2023-09-17T16:11:17.589Z,29.10
2023-09-17T16:16:19.673Z,28.80
2023-09-17T16:21:21.728Z,28.70
2023-09-17T16:26:23.635Z,28.60
2023-09-17T16:31:25.466Z,28.60
2023-09-17T16:36:27.277Z,28.20
2023-09-17T16:41:29.112Z,28.20
2023-09-17T16:46:30.906Z,27.90
2023-09-17T16:51:37.696Z,27.60
2023-09-17T16:56:41.440Z,27.40
2023-09-17T17:01:43.517Z,27.20
2023-09-17T17:06:45.519Z,27.00
2023-09-17T17:11:47.369Z,26.80
2023-09-17T17:16:49.306Z,26.50
2023-09-17T17:21:51.147Z,26.20
2023-09-17T17:26:53.017Z,25.90
2023-09-17T17:31:54.902Z,25.70
2023-09-17T17:37:00.959Z,25.40
2023-09-17T17:42:02.881Z,25.20
2023-09-17T17:47:05.052Z,25.00
2023-09-17T17:52:06.973Z,24.80
2023-09-17T17:57:08.950Z,24.70
2023-09-17T18:02:10.915Z,24.60
2023-09-17T18:07:15.040Z,24.50
2023-09-17T18:12:16.921Z,24.40
2023-09-17T18:17:19.222Z,24.20
2023-09-17T18:22:21.864Z,24.10
2023-09-17T18:27:24.151Z,24.20
2023-09-17T18:32:26.157Z,24.20
2023-09-17T18:37:28.996Z,24.30
2023-09-17T18:42:31.537Z,24.20
2023-09-17T18:47:33.322Z,24.20
2023-09-17T18:52:36.679Z,24.10
2023-09-17T18:57:40.656Z,23.90
2023-09-17T19:02:43.747Z,23.90
2023-09-17T19:07:45.697Z,23.70
2023-09-17T19:12:55.374Z,23.70
2023-09-17T19:17:57.225Z,23.70
2023-09-17T19:22:59.181Z,23.60
2023-09-17T19:28:01.393Z,23.60
2023-09-17T19:33:04.935Z,23.50
2023-09-17T19:38:06.801Z,23.50
2023-09-17T19:43:08.769Z,23.50
2023-09-17T19:48:11.870Z,23.60
2023-09-17T19:53:14.819Z,23.50
2023-09-17T19:58:16.732Z,23.50
2023-09-17T20:03:22.437Z,23.50
2023-09-17T20:08:24.492Z,23.50
2023-09-17T20:13:26.328Z,23.50
2023-09-17T20:18:28.743Z,23.50
2023-09-17T20:23:37.013Z,23.40
2023-09-17T20:28:39.058Z,23.20
2023-09-17T20:33:40.911Z,23.20
2023-09-17T20:38:50.639Z,23.10
2023-09-17T20:43:53.166Z,23.10
2023-09-17T20:48:57.580Z,23.00
2023-09-17T20:54:01.240Z,23.00
2023-09-17T20:59:04.037Z,22.80
2023-09-17T21:04:06.502Z,22.80
2023-09-17T21:09:08.363Z,22.90
2023-09-17T21:14:10.262Z,23.00
2023-09-17T21:19:12.561Z,23.00
2023-09-17T21:24:14.373Z,22.90
2023-09-17T21:29:16.181Z,22.90
2023-09-17T21:34:18.310Z,22.90
2023-09-17T21:39:20.123Z,22.90
2023-09-17T21:44:22.028Z,22.80
2023-09-17T21:49:23.923Z,22.80
2023-09-17T21:54:25.758Z,22.60
2023-09-17T21:59:27.691Z,22.50
2023-09-17T22:04:30.023Z,22.30
2023-09-17T22:09:31.800Z,22.20
2023-09-17T22:14:35.408Z,22.10
2023-09-17T22:19:41.516Z,22.10
2023-09-17T22:24:45.290Z,22.10
2023-09-17T22:29:47.130Z,22.10
2023-09-17T22:34:49.214Z,22.10
2023-09-17T22:39:52.022Z,22.10
2023-09-17T22:44:53.991Z,22.10
2023-09-17T22:49:55.855Z,22.00
2023-09-17T22:54:57.804Z,22.00
2023-09-17T22:59:59.563Z,22.00
2023-09-17T23:05:01.566Z,22.00
2023-09-17T23:10:03.560Z,21.90
2023-09-17T23:15:05.623Z,21.80
2023-09-17T23:20:09.477Z,21.80
2023-09-17T23:25:11.599Z,21.80
2023-09-17T23:30:13.796Z,21.70
2023-09-17T23:35:15.814Z,21.60
2023-09-17T23:40:17.647Z,21.50
2023-09-17T23:45:19.560Z,21.50
2023-09-17T23:50:21.404Z,21.40
2023-09-17T23:55:23.168Z,21.40
